Andalusia, Alabama
Current Conditions -  °F | °C
As of 12:56 PM on Thursday 23 Oct 2014 (Local Time) from K79J Reporting Station
Clear Clear  
Wind Chill: 25°   Ceiling: Unl
Heat Index: 25°   Visibility: 10mi
Dew Point:   Wind: 6mph
Humidity: 29%   Direction: 120°ESE
Pressure: 30.08"   Gusts: NA
Location:  31.32°N, 86.49°W
Report Text: K79J 231756Z AUTO 12005KT 10SM CLR 25/06 A3008 RMK AO2 SLP182 T02500056 10250 20089 58015
Loading
Personal Weather Stations






























Interactive Weather Map
Tropical Storm Tracking
New forecast layout! Learn more

10-Day Weather Forecast

Advertisements
Track Severe Weather on mobile